Time;durP1;ratioP1;P1;durP2;ratioP2;P2;SDS_P1;SDS_P2;PMS_P1;PMS_P2;Temp;Humidity;BMP_temperature;BMP_pressure;BME280_temperature;BME280_humidity;BME280_pressure;Samples;Min_cycle;Max_cycle;Signal;HPM_P1;HPM_P2
2021/11/11 00:00:35;;;;;;;24.77;12.65;;;4.20;96.00;;;1.43;100.00;101425.09;5026362;28;20068;-82
2021/11/11 00:03:03;;;;;;;28.67;12.75;;;4.10;96.00;;;1.39;100.00;101425.38;5042116;28;20051;-82
2021/11/11 00:05:32;;;;;;;24.80;12.55;;;4.10;96.00;;;1.39;100.00;101434.31;5049242;28;20424;-82
2021/11/11 00:08:00;;;;;;;24.92;12.63;;;4.10;96.00;;;1.38;100.00;101424.53;5048427;28;20549;-83
2021/11/11 00:10:28;;;;;;;23.70;12.40;;;4.10;96.00;;;1.38;100.00;101429.91;5032226;28;20049;-83
2021/11/11 00:12:56;;;;;;;27.90;12.27;;;4.10;96.10;;;1.39;100.00;101433.44;5030041;28;20045;-82
2021/11/11 00:15:26;;;;;;;31.13;14.13;;;4.10;96.10;;;1.40;100.00;101429.81;5029034;28;20056;-82
2021/11/11 00:17:53;;;;;;;27.55;14.43;;;4.00;96.10;;;1.36;100.00;101421.09;5028297;28;20052;-82
2021/11/11 00:20:24;;;;;;;28.30;14.80;;;4.00;96.10;;;1.38;100.00;101421.00;5029021;28;20053;-82
2021/11/11 00:22:53;;;;;;;24.98;13.70;;;4.00;96.20;;;1.32;100.00;101416.91;5040140;28;20562;-82
2021/11/11 00:25:23;;;;;;;25.42;13.73;;;4.00;96.20;;;1.33;100.00;101416.81;5034615;28;20045;-82
2021/11/11 00:27:50;;;;;;;28.55;14.45;;;4.00;96.20;;;1.29;100.00;101406.38;5028060;28;20054;-82
2021/11/11 00:30:20;;;;;;;26.27;12.95;;;4.00;96.10;;;1.21;100.00;101409.56;5027592;28;20041;-82
2021/11/11 00:32:52;;;;;;;28.55;14.30;;;4.00;96.10;;;1.19;100.00;101406.13;5026454;28;20045;-82
2021/11/11 00:35:23;;;;;;;25.60;13.18;;;4.00;96.00;;;1.15;100.00;101399.25;5040271;28;20049;-82
2021/11/11 00:37:51;;;;;;;29.52;13.13;;;3.90;96.00;;;1.17;100.00;101395.50;5006806;28;20081;-82
2021/11/11 00:40:18;;;;;;;29.27;13.75;;;3.90;96.10;;;1.22;100.00;101386.28;5007367;28;20576;-82
2021/11/11 00:42:48;;;;;;;28.63;14.60;;;3.90;96.10;;;1.25;100.00;101394.13;5033690;28;20044;-82
2021/11/11 00:45:16;;;;;;;28.33;14.02;;;3.90;96.40;;;1.31;100.00;101388.34;5046971;28;20048;-82
2021/11/11 00:47:44;;;;;;;29.17;13.75;;;3.90;96.50;;;1.17;100.00;101383.94;5030674;28;20521;-82
2021/11/11 00:50:16;;;;;;;30.08;13.98;;;3.90;96.30;;;1.14;100.00;101387.69;5025470;28;20052;-82
2021/11/11 00:52:43;;;;;;;30.15;14.25;;;3.90;96.30;;;1.15;100.00;101389.38;5037120;28;20075;-82
2021/11/11 00:55:11;;;;;;;25.65;12.98;;;3.90;96.30;;;1.26;100.00;101379.78;5063591;28;20086;-82
2021/11/11 00:58:02;;;;;;;24.50;13.05;;;3.90;96.40;;;1.33;100.00;101375.69;5045663;28;20679;-82
2021/11/11 01:00:29;;;;;;;28.77;13.40;;;3.90;96.80;;;1.28;100.00;101372.50;5048207;28;20037;-82
2021/11/11 01:02:57;;;;;;;25.58;13.80;;;3.90;96.90;;;1.26;100.00;101375.28;5044046;28;20057;-82
2021/11/11 01:05:27;;;;;;;29.67;12.98;;;3.90;96.80;;;1.36;100.00;101378.19;5035682;28;20437;-82
2021/11/11 01:07:54;;;;;;;22.55;12.02;;;3.90;96.80;;;1.36;100.00;101376.34;5027400;28;20518;-82
2021/11/11 01:10:21;;;;;;;25.45;12.50;;;3.90;97.00;;;1.31;100.00;101374.94;5042621;28;20056;-82
2021/11/11 01:12:51;;;;;;;26.70;12.40;;;3.90;97.00;;;1.34;100.00;101377.44;5042442;28;20512;-82
2021/11/11 01:15:24;;;;;;;25.05;12.77;;;3.90;97.10;;;1.32;100.00;101377.53;5033297;28;20128;-82
2021/11/11 01:17:51;;;;;;;21.95;12.23;;;3.90;97.00;;;1.25;100.00;101361.97;5042221;28;20116;-82
2021/11/11 01:20:20;;;;;;;25.95;13.20;;;3.90;96.80;;;1.21;100.00;101371.19;5063364;28;20160;-82
2021/11/11 01:22:51;;;;;;;26.10;13.52;;;3.90;96.90;;;1.17;100.00;101382.09;5027799;28;20054;-82
2021/11/11 01:25:24;;;;;;;27.73;12.90;;;3.90;96.80;;;1.16;100.00;101383.06;5025410;28;20045;-82
2021/11/11 01:27:54;;;;;;;26.83;12.63;;;3.90;96.80;;;1.14;100.00;101376.97;5025950;28;20061;-82
2021/11/11 01:30:32;;;;;;;24.73;12.65;;;3.90;96.80;;;1.09;100.00;101363.00;5026787;28;20472;-82
2021/11/11 01:33:25;;;;;;;23.58;12.20;;;3.90;96.80;;;1.16;100.00;101358.94;5024068;28;20053;-82
2021/11/11 01:35:54;;;;;;;23.08;12.88;;;3.80;96.80;;;1.21;100.00;101361.31;5026500;28;20083;-82
2021/11/11 01:38:30;;;;;;;23.35;12.45;;;3.80;96.90;;;1.16;100.00;101358.06;5024675;28;20077;-82
2021/11/11 01:41:00;;;;;;;25.45;12.60;;;3.90;97.10;;;1.08;100.00;101361.25;5026462;28;20045;-82
2021/11/11 01:43:32;;;;;;;22.85;12.07;;;3.90;96.90;;;1.06;100.00;101362.34;5031341;28;20050;-82
2021/11/11 01:46:00;;;;;;;30.40;13.00;;;3.80;96.80;;;1.11;100.00;101349.50;5026289;28;20049;-82
2021/11/11 01:48:28;;;;;;;26.05;13.45;;;3.80;96.90;;;1.12;100.00;101346.72;5026770;28;20060;-82
2021/11/11 01:51:01;;;;;;;23.60;12.50;;;3.80;97.00;;;1.07;100.00;101338.13;5025761;28;20045;-82
2021/11/11 01:53:34;;;;;;;25.88;11.93;;;3.80;97.00;;;1.04;100.00;101341.00;5042040;28;20045;-82
2021/11/11 01:56:01;;;;;;;23.45;12.45;;;3.80;96.80;;;1.05;100.00;101358.81;5038142;28;20060;-82
2021/11/11 01:58:29;;;;;;;25.67;12.18;;;3.80;96.80;;;1.04;100.00;101353.53;5042028;28;20046;-82
2021/11/11 02:00:59;;;;;;;23.23;11.93;;;3.90;96.90;;;0.95;100.00;101352.31;5022487;28;20077;-82
2021/11/11 02:03:32;;;;;;;23.52;11.95;;;3.80;96.70;;;0.96;100.00;101346.00;5023844;28;20056;-82
2021/11/11 02:06:04;;;;;;;21.27;11.30;;;3.70;96.60;;;1.00;100.00;101341.31;5026361;28;20049;-82
2021/11/11 02:08:53;;;;;;;23.27;11.45;;;3.70;96.60;;;0.96;100.00;101346.00;5030704;28;20045;-81
2021/11/11 02:11:25;;;;;;;21.63;11.65;;;3.70;96.60;;;0.93;100.00;101336.38;5032287;28;20470;-81
2021/11/11 02:13:55;;;;;;;21.88;12.40;;;3.70;96.70;;;0.95;100.00;101336.25;5025159;28;20045;-82
2021/11/11 02:16:23;;;;;;;22.90;12.30;;;3.70;96.70;;;0.95;100.00;101339.81;5029606;28;20045;-82
2021/11/11 02:18:50;;;;;;;23.30;11.80;;;3.70;96.70;;;0.88;100.00;101343.00;5028977;28;20042;-82
2021/11/11 02:21:20;;;;;;;25.00;11.65;;;3.60;96.60;;;0.88;100.00;101348.34;5029648;28;20095;-82
2021/11/11 02:23:55;;;;;;;24.20;11.43;;;3.60;96.60;;;0.92;100.00;101344.50;5029423;28;20509;-82
2021/11/11 02:26:40;;;;;;;25.30;11.45;;;3.60;96.70;;;0.83;100.00;101340.59;5029517;28;20053;-82
2021/11/11 02:29:17;;;;;;;36.70;12.35;;;3.60;96.60;;;0.70;100.00;101337.00;5028868;28;20053;-82
2021/11/11 02:31:44;;;;;;;22.73;11.60;;;3.60;96.40;;;0.74;100.00;101336.72;5030918;28;20494;-81
2021/11/11 02:34:12;;;;;;;24.70;11.38;;;3.50;96.60;;;0.78;100.00;101340.91;5029089;28;20060;-82
2021/11/11 02:37:00;;;;;;;23.42;12.07;;;3.50;96.60;;;0.80;100.00;101342.63;5029482;28;20052;-81
2021/11/11 02:39:47;;;;;;;21.23;11.75;;;3.50;96.70;;;0.75;100.00;101338.44;5030264;28;20135;-82
2021/11/11 02:42:17;;;;;;;22.95;12.15;;;3.50;96.60;;;0.72;100.00;101344.00;5029686;28;20068;-82
2021/11/11 02:44:45;;;;;;;24.08;12.75;;;3.50;96.70;;;0.73;100.00;101339.50;5027860;28;20049;-81
2021/11/11 02:47:20;;;;;;;20.88;11.45;;;3.50;96.70;;;0.71;100.00;101347.63;5028964;28;20045;-82
2021/11/11 02:49:51;;;;;;;21.47;11.47;;;3.40;96.60;;;0.67;100.00;101348.78;5029035;28;20154;-82
2021/11/11 02:52:20;;;;;;;28.70;13.15;;;3.50;96.70;;;0.65;100.00;101353.41;5029099;28;20053;-82
2021/11/11 02:54:50;;;;;;;23.13;10.55;;;3.50;96.70;;;0.62;100.00;101350.06;5028860;28;20046;-82
2021/11/11 02:57:23;;;;;;;25.17;12.15;;;3.40;96.60;;;0.65;100.00;101357.88;5028777;28;20056;-81
2021/11/11 02:59:53;;;;;;;22.30;11.35;;;3.40;96.60;;;0.70;100.00;101355.75;5028784;28;20421;-81
2021/11/11 03:02:24;;;;;;;23.08;10.63;;;3.40;96.60;;;0.70;100.00;101348.56;5029731;28;20041;-82
2021/11/11 03:04:52;;;;;;;;;;;3.40;96.60;;;0.69;100.00;101343.34;5029378;28;20053;-81
2021/11/11 03:07:21;;;;;;;25.48;12.40;;;3.40;96.70;;;0.64;100.00;101346.31;5026758;28;19932;-82
2021/11/11 03:09:50;;;;;;;21.67;11.25;;;3.40;96.60;;;0.63;100.00;101347.28;5033211;28;20099;-82
2021/11/11 03:12:20;;;;;;;23.58;11.35;;;3.30;96.70;;;0.65;100.00;101348.03;5028880;28;20049;-82
2021/11/11 03:14:50;;;;;;;20.33;11.55;;;3.30;96.80;;;0.64;100.00;101340.94;5028528;28;20048;-81
2021/11/11 03:17:17;;;;;;;23.33;12.05;;;3.30;96.80;;;0.57;100.00;101345.84;5028527;28;20068;-82
2021/11/11 03:19:46;;;;;;;20.27;11.02;;;3.40;96.70;;;0.58;100.00;101346.72;5029490;28;20064;-81
2021/11/11 03:22:18;;;;;;;26.38;11.30;;;3.30;96.70;;;0.61;100.00;101351.00;5027093;28;20082;-82
2021/11/11 03:24:51;;;;;;;24.65;11.93;;;3.30;96.90;;;0.61;100.00;101343.84;5028205;28;20069;-82
2021/11/11 03:27:19;;;;;;;23.60;12.20;;;3.30;96.80;;;0.54;100.00;101345.19;5028246;28;20144;-81
2021/11/11 03:29:49;;;;;;;19.13;10.38;;;3.30;96.90;;;0.53;100.00;101348.81;5029403;28;20127;-81
2021/11/11 03:32:17;;;;;;;20.60;11.10;;;3.30;96.80;;;0.52;100.00;101353.31;5028351;28;20080;-81
2021/11/11 03:34:48;;;;;;;19.65;10.70;;;3.30;96.90;;;0.53;100.00;101347.03;5028049;28;20644;-81
2021/11/11 03:37:16;;;;;;;19.42;11.38;;;3.30;96.80;;;0.55;100.00;101347.78;5029594;28;20042;-81
2021/11/11 03:39:43;;;;;;;22.38;10.90;;;3.20;96.60;;;0.56;100.00;101345.94;5027599;28;20567;-81
2021/11/11 03:42:13;;;;;;;20.58;10.98;;;3.20;96.60;;;0.56;100.00;101357.50;5028168;28;20051;-81
2021/11/11 03:44:42;;;;;;;19.98;11.27;;;3.20;96.60;;;0.56;100.00;101353.97;5028058;28;20110;-81
2021/11/11 03:47:10;;;;;;;19.35;10.85;;;3.20;96.60;;;0.57;100.00;101351.22;5025395;28;20045;-82
2021/11/11 03:49:41;;;;;;;20.48;11.52;;;3.20;96.60;;;0.57;100.00;101359.25;5020271;28;20417;-82
2021/11/11 03:52:09;;;;;;;20.15;11.10;;;3.20;96.60;;;0.53;100.00;101359.53;5029396;28;20056;-81
2021/11/11 03:54:38;;;;;;;21.98;11.05;;;3.20;96.60;;;0.58;100.00;101362.78;5027805;28;20041;-81
2021/11/11 03:57:07;;;;;;;19.55;10.70;;;3.30;96.80;;;0.57;100.00;101366.41;5024461;28;20041;-81
2021/11/11 03:59:37;;;;;;;21.55;10.77;;;3.20;96.60;;;0.55;100.00;101357.59;5026664;28;20049;-82
2021/11/11 04:02:05;;;;;;;20.63;11.02;;;3.20;96.60;;;0.53;100.00;101367.56;5027703;28;20064;-81
2021/11/11 04:04:36;;;;;;;22.73;12.02;;;3.10;96.60;;;0.52;100.00;101364.03;5027211;28;20060;-81
2021/11/11 04:07:04;;;;;;;;;;;3.10;96.60;;;0.47;100.00;101357.25;5025083;28;20049;-82
2021/11/11 04:09:32;;;;;;;26.00;11.85;;;3.10;96.70;;;0.42;100.00;101362.03;5036082;28;19954;-81
2021/11/11 04:12:01;;;;;;;22.80;11.32;;;3.10;96.70;;;0.32;100.00;101359.94;5047519;28;20049;-81
2021/11/11 04:14:28;;;;;;;20.48;10.95;;;3.10;96.60;;;0.35;100.00;101357.06;5047327;28;20425;-81
2021/11/11 04:16:57;;;;;;;20.80;11.50;;;3.10;96.60;;;0.34;100.00;101360.72;5037985;28;20156;-81
2021/11/11 04:19:25;;;;;;;17.63;10.07;;;3.10;96.60;;;0.34;100.00;101355.38;5026792;28;20053;-81
2021/11/11 04:21:53;;;;;;;24.25;11.70;;;3.10;96.70;;;0.41;100.00;101358.50;5026575;28;20149;-81
2021/11/11 04:24:21;;;;;;;22.25;10.88;;;3.10;96.70;;;0.36;100.00;101356.13;5023990;28;20046;-81
2021/11/11 04:26:53;;;;;;;22.95;11.98;;;3.10;96.80;;;0.38;100.00;101358.69;5007571;28;20077;-81
2021/11/11 04:29:25;;;;;;;21.73;11.45;;;3.10;96.80;;;0.42;100.00;101356.69;5006966;28;20104;-81
2021/11/11 04:31:56;;;;;;;19.98;11.10;;;3.10;96.80;;;0.46;100.00;101352.84;5010574;28;20050;-82
2021/11/11 04:34:26;;;;;;;18.70;10.75;;;3.10;96.90;;;0.41;100.00;101366.53;5026285;28;20064;-81
2021/11/11 04:51:25;;;;;;;20.23;10.48;;;3.00;96.70;;;0.33;100.00;101380.41;4968741;28;20061;-81
2021/11/11 04:59:41;;;;;;;22.08;10.30;;;3.00;96.80;;;0.28;100.00;101381.66;5026799;28;20049;-81
2021/11/11 05:02:22;;;;;;;20.02;10.15;;;3.00;96.70;;;0.28;100.00;101385.19;5043115;28;20144;-81
2021/11/11 05:04:51;;;;;;;21.75;11.07;;;3.00;96.70;;;0.27;100.00;101380.81;5020123;28;20290;-81
2021/11/11 05:07:19;;;;;;;18.52;10.13;;;3.00;96.80;;;0.26;100.00;101384.44;5042866;28;20048;-81
2021/11/11 05:09:50;;;;;;;21.10;10.80;;;3.00;96.70;;;0.30;100.00;101385.94;5026465;28;20059;-82
2021/11/11 05:12:18;;;;;;;18.38;10.27;;;2.90;96.70;;;0.25;100.00;101388.06;5024890;28;20072;-81
2021/11/11 05:14:45;;;;;;;20.42;11.40;;;2.90;96.70;;;0.20;100.00;101384.81;5026332;28;20049;-81
2021/11/11 05:17:13;;;;;;;24.75;12.13;;;2.90;96.70;;;0.25;100.00;101387.19;5026461;28;20053;-81
2021/11/11 05:19:42;;;;;;;24.92;11.70;;;2.90;96.70;;;0.27;100.00;101394.19;5025863;28;20510;-83
2021/11/11 05:22:09;;;;;;;20.60;11.60;;;2.90;96.80;;;0.25;100.00;101388.06;5026604;28;20077;-87
2021/11/11 05:24:41;;;;;;;23.02;11.68;;;2.90;96.80;;;0.32;100.00;101396.56;5050467;23;20052;-81
2021/11/11 05:27:11;;;;;;;17.75;10.10;;;2.90;96.90;;;0.30;100.00;101393.13;5040133;28;20463;-80
2021/11/11 05:29:39;;;;;;;17.70;11.13;;;2.90;96.90;;;0.26;100.00;101395.13;5044922;28;20138;-81
2021/11/11 05:32:07;;;;;;;20.50;11.60;;;2.90;96.80;;;0.30;100.00;101387.78;5033776;28;20144;-80
2021/11/11 05:34:36;;;;;;;23.15;11.18;;;2.90;96.90;;;0.27;100.00;101383.50;5042857;23;20352;-85
2021/11/11 05:37:04;;;;;;;28.80;12.45;;;2.90;96.90;;;0.34;100.00;101386.63;5034043;28;20054;-84
2021/11/11 05:39:32;;;;;;;23.95;12.00;;;3.00;97.00;;;0.30;100.00;101385.09;5010218;28;20060;-85
2021/11/11 05:42:02;;;;;;;23.52;11.93;;;3.00;96.90;;;0.27;100.00;101385.31;5029506;28;20052;-85
2021/11/11 05:44:30;;;;;;;23.50;12.05;;;3.00;96.90;;;0.24;100.00;101386.34;5023609;28;20050;-84
2021/11/11 05:46:57;;;;;;;23.00;12.15;;;2.90;96.90;;;0.25;100.00;101390.75;5011972;28;20049;-84
2021/11/11 05:49:25;;;;;;;26.98;13.48;;;2.90;96.80;;;0.28;100.00;101387.88;5014313;28;20044;-84
2021/11/11 05:51:54;;;;;;;27.52;11.45;;;2.90;97.00;;;0.33;100.00;101380.41;5032660;28;20053;-85
2021/11/11 05:54:21;;;;;;;28.50;11.95;;;2.90;97.10;;;0.33;100.00;101385.78;5066044;28;20045;-86
2021/11/11 05:56:49;;;;;;;25.35;13.05;;;2.90;97.20;;;0.37;100.00;101386.44;5022185;28;20128;-85
2021/11/11 05:59:17;;;;;;;31.08;14.20;;;2.90;97.20;;;0.38;100.00;101388.13;5035072;28;20120;-84
2021/11/11 06:01:46;;;;;;;27.33;14.15;;;3.00;97.30;;;0.33;100.00;101385.78;5009642;28;20584;-84
2021/11/11 06:04:13;;;;;;;32.65;15.13;;;3.00;97.20;;;0.33;100.00;101398.31;5014547;28;20038;-84
2021/11/11 06:06:47;;;;;;;33.80;14.18;;;2.90;97.20;;;0.33;100.00;101388.44;5025072;28;20052;-85
2021/11/11 06:09:14;;;;;;;33.00;14.00;;;3.00;97.10;;;0.32;100.00;101383.19;5043962;28;20072;-84
2021/11/11 06:11:42;;;;;;;34.10;14.25;;;3.00;97.20;;;0.29;100.00;101397.63;5013567;28;20136;-84
2021/11/11 06:14:11;;;;;;;28.15;12.98;;;3.00;97.20;;;0.26;100.00;101400.50;5013096;28;20080;-84
2021/11/11 06:16:40;;;;;;;31.02;14.57;;;3.00;97.10;;;0.22;100.00;101407.00;5017841;28;20389;-82
2021/11/11 06:19:09;;;;;;;28.33;14.20;;;3.00;97.10;;;0.19;100.00;101408.06;5032348;28;20052;-82
2021/11/11 06:21:38;;;;;;;27.48;13.10;;;3.00;97.00;;;0.17;100.00;101409.09;5023275;28;20073;-83
2021/11/11 06:24:06;;;;;;;23.08;11.82;;;2.90;96.90;;;0.20;100.00;101406.22;5051262;28;20144;-83
2021/11/11 06:26:36;;;;;;;32.60;13.75;;;2.90;97.00;;;0.14;100.00;101409.31;4997634;28;20061;-83
2021/11/11 06:29:06;;;;;;;23.00;12.65;;;2.90;96.90;;;0.16;100.00;101415.41;5025651;28;20225;-83
2021/11/11 06:31:35;;;;;;;24.77;13.02;;;2.90;96.90;;;0.21;100.00;101418.69;5027096;28;20069;-81
2021/11/11 06:34:04;;;;;;;32.00;13.88;;;2.90;97.00;;;0.16;100.00;101421.63;5027076;28;20524;-80
2021/11/11 06:36:32;;;;;;;25.63;13.85;;;2.90;96.90;;;0.15;100.00;101419.03;5029996;28;20037;-80
2021/11/11 06:38:59;;;;;;;22.33;12.30;;;2.90;96.90;;;0.19;100.00;101420.56;5038717;28;20042;-81
2021/11/11 06:41:27;;;;;;;26.70;12.77;;;2.90;96.90;;;0.23;100.00;101422.13;5011116;28;20049;-80
2021/11/11 06:43:54;;;;;;;25.70;13.00;;;2.90;96.90;;;0.28;100.00;101425.34;5010909;28;20457;-80
2021/11/11 06:46:22;;;;;;;25.20;13.05;;;2.90;96.90;;;0.29;100.00;101424.41;5010951;28;20490;-80
2021/11/11 06:48:49;;;;;;;30.98;13.68;;;2.90;97.00;;;0.29;100.00;101428.91;5010267;28;20847;-80
2021/11/11 06:51:18;;;;;;;24.23;12.20;;;2.80;96.90;;;0.22;100.00;101425.72;5013726;28;20111;-81
2021/11/11 06:53:45;;;;;;;23.63;12.55;;;2.80;96.90;;;0.25;100.00;101427.34;5018662;28;20581;-81
2021/11/11 06:56:13;;;;;;;25.00;12.77;;;2.80;96.90;;;0.27;100.00;101436.19;5035470;28;20129;-80
2021/11/11 06:58:40;;;;;;;30.70;14.20;;;2.80;97.00;;;0.31;100.00;101440.38;5010462;28;20116;-80
2021/11/11 07:01:08;;;;;;;23.30;13.10;;;2.80;97.00;;;0.28;100.00;101445.91;4992843;28;20045;-80
2021/11/11 07:03:35;;;;;;;24.48;13.07;;;2.80;97.00;;;0.32;100.00;101447.44;4996345;28;20054;-80
2021/11/11 07:06:03;;;;;;;24.63;13.27;;;2.80;97.00;;;0.31;100.00;101451.94;4992856;28;20148;-80
2021/11/11 07:08:32;;;;;;;27.35;13.23;;;2.90;97.10;;;0.25;100.00;101452.31;5008983;28;20052;-80
2021/11/11 07:10:59;;;;;;;24.20;13.00;;;2.80;97.00;;;0.29;100.00;101461.03;5038505;28;20135;-81
2021/11/11 07:13:27;;;;;;;25.58;13.38;;;2.80;97.10;;;0.29;100.00;101461.03;5013776;28;20576;-81
2021/11/11 07:15:54;;;;;;;29.38;13.90;;;2.80;97.10;;;0.31;100.00;101468.00;5024206;28;20048;-81
2021/11/11 07:18:21;;;;;;;29.48;13.98;;;2.90;97.20;;;0.39;100.00;101465.69;5029404;28;20073;-81
2021/11/11 07:20:50;;;;;;;35.53;20.42;;;2.90;97.30;;;0.46;100.00;101470.66;5030122;28;20136;-80
2021/11/11 07:23:22;;;;;;;41.45;21.35;;;2.90;97.40;;;0.50;100.00;101458.84;5023905;28;20044;-80
2021/11/11 07:25:52;;;;;;;39.25;20.90;;;2.90;97.40;;;0.58;100.00;101467.25;5029038;28;20520;-81
2021/11/11 07:28:19;;;;;;;43.83;21.45;;;3.00;97.50;;;0.63;100.00;101461.56;5026460;28;20124;-80
2021/11/11 07:30:48;;;;;;;39.28;20.92;;;3.00;97.50;;;0.67;100.00;101461.31;5029244;28;20061;-81
2021/11/11 07:33:17;;;;;;;33.50;19.73;;;3.00;97.50;;;0.74;100.00;101453.72;5024867;28;20138;-81
2021/11/11 07:35:45;;;;;;;37.35;18.92;;;3.00;97.60;;;0.76;100.00;101462.50;5027285;28;20052;-81
2021/11/11 07:38:15;;;;;;;39.88;20.85;;;3.10;97.70;;;0.74;100.00;101462.63;5030201;28;20244;-81
2021/11/11 07:40:43;;;;;;;48.58;20.42;;;3.10;97.80;;;0.74;100.00;101465.31;5022712;28;20537;-81
2021/11/11 07:43:12;;;;;;;48.55;22.85;;;3.10;97.70;;;0.82;100.00;101463.94;5022483;28;20041;-81
2021/11/11 07:45:43;;;;;;;43.95;21.88;;;3.20;97.80;;;0.82;100.00;101471.97;5011661;28;20469;-81
2021/11/11 07:48:10;;;;;;;42.13;20.77;;;3.20;97.80;;;0.89;100.00;101467.97;5028060;28;20180;-81
2021/11/11 07:50:40;;;;;;;43.00;21.40;;;3.20;97.70;;;0.89;100.00;101473.31;5027413;28;20135;-81
2021/11/11 07:53:10;;;;;;;37.38;21.27;;;3.30;98.00;;;0.92;100.00;101473.13;5003436;28;20145;-81
2021/11/11 07:55:39;;;;;;;39.70;20.55;;;3.30;97.90;;;1.00;100.00;101469.97;5028666;28;20046;-81
2021/11/11 07:58:08;;;;;;;39.08;21.15;;;3.30;98.00;;;1.02;100.00;101462.69;5044984;28;20557;-81
2021/11/11 08:00:38;;;;;;;33.42;17.80;;;3.40;98.00;;;1.11;100.00;101467.44;5029186;28;20099;-81
2021/11/11 08:03:05;;;;;;;35.63;16.93;;;3.40;98.00;;;1.29;100.00;101466.22;5026971;28;20045;-81
2021/11/11 08:05:34;;;;;;;36.25;18.25;;;3.40;98.00;;;1.38;100.00;101466.59;5032886;28;20296;-81
2021/11/11 08:08:01;;;;;;;36.38;18.58;;;3.40;98.30;;;1.43;100.00;101473.38;5027311;28;20045;-81
2021/11/11 08:10:28;;;;;;;36.75;19.10;;;3.50;98.50;;;1.50;100.00;101479.19;5011939;28;20688;-81
2021/11/11 08:12:56;;;;;;;36.63;18.67;;;3.60;98.50;;;1.56;100.00;101485.00;5041740;28;20073;-81
2021/11/11 08:15:23;;;;;;;36.00;18.25;;;3.60;98.50;;;1.52;100.00;101474.56;5044367;28;20771;-82
2021/11/11 08:17:52;;;;;;;34.85;18.35;;;3.70;98.50;;;1.55;100.00;101472.53;5030973;28;20046;-82
2021/11/11 08:20:20;;;;;;;34.33;16.95;;;3.70;98.50;;;1.61;100.00;101470.41;5028910;28;20049;-82
2021/11/11 08:22:49;;;;;;;38.55;17.52;;;3.70;98.50;;;1.66;100.00;101476.34;5024453;28;20636;-82
2021/11/11 08:25:18;;;;;;;34.17;17.27;;;3.80;98.60;;;1.68;100.00;101466.38;5017972;28;20056;-82
2021/11/11 08:27:46;;;;;;;36.60;17.40;;;3.80;98.60;;;1.81;100.00;101466.38;5048096;28;20124;-81
2021/11/11 08:30:17;;;;;;;32.45;17.00;;;3.90;98.70;;;1.81;100.00;101467.25;5030732;28;20049;-82
2021/11/11 08:32:47;;;;;;;34.13;16.85;;;3.90;98.70;;;1.81;100.00;101478.00;5034471;28;20129;-82
2021/11/11 08:35:16;;;;;;;58.57;19.97;;;4.00;98.80;;;1.86;100.00;101475.84;5018774;28;20061;-81
2021/11/11 08:37:45;;;;;;;34.95;17.15;;;4.00;98.70;;;1.91;100.00;101471.03;5027852;28;20316;-80
2021/11/11 08:40:15;;;;;;;28.10;16.02;;;4.00;98.70;;;2.00;100.00;101472.22;5020117;28;20051;-81
2021/11/11 08:42:43;;;;;;;32.28;16.30;;;4.10;99.00;;;2.08;100.00;101469.88;5052719;28;20041;-81
2021/11/11 08:45:12;;;;;;;32.00;16.95;;;4.10;99.00;;;2.15;100.00;101471.16;5008123;28;20448;-80
2021/11/11 08:47:40;;;;;;;33.33;16.63;;;4.20;99.20;;;2.21;100.00;101471.69;5029609;28;20052;-80
2021/11/11 08:50:10;;;;;;;28.85;16.73;;;4.30;99.40;;;2.24;100.00;101480.38;5030139;28;20051;-80
2021/11/11 08:52:43;;;;;;;33.17;16.15;;;4.30;99.30;;;2.31;100.00;101473.63;5038788;28;20053;-80
2021/11/11 08:55:11;;;;;;;37.78;18.50;;;4.40;99.30;;;2.41;100.00;101473.84;5020724;28;20120;-80
2021/11/11 08:57:39;;;;;;;35.38;18.42;;;4.40;99.40;;;2.53;100.00;101474.78;5049255;28;20045;-80
2021/11/11 09:00:13;;;;;;;38.63;18.60;;;4.50;99.40;;;2.59;100.00;101469.00;5028056;28;20394;-81
2021/11/11 09:02:41;;;;;;;37.10;18.10;;;4.60;99.60;;;2.67;100.00;101466.63;5025015;28;20041;-81
2021/11/11 09:05:08;;;;;;;32.88;18.58;;;4.60;99.70;;;2.78;100.00;101463.16;5024755;28;20049;-81
2021/11/11 09:07:39;;;;;;;33.28;17.67;;;4.60;99.70;;;2.87;100.00;101456.25;5047527;28;20408;-81
2021/11/11 09:10:08;;;;;;;33.83;18.02;;;4.70;99.90;;;2.98;100.00;101464.41;5034117;28;20081;-81
2021/11/11 09:12:36;;;;;;;37.75;19.95;;;4.70;99.90;;;3.08;100.00;101465.44;5030989;28;20128;-81
2021/11/11 09:15:05;;;;;;;39.25;20.23;;;4.80;99.90;;;3.20;100.00;101462.81;5035298;28;20099;-81
2021/11/11 09:18:07;;;;;;;33.85;19.52;;;4.90;99.90;;;3.36;100.00;101449.94;5027205;28;20042;-81
2021/11/11 09:20:39;;;;;;;45.28;22.30;;;5.00;99.90;;;3.52;100.00;101455.91;5012112;28;20057;-81
2021/11/11 09:23:09;;;;;;;42.50;22.15;;;5.10;99.90;;;3.62;100.00;101449.84;5006596;28;20045;-81
2021/11/11 09:25:36;;;;;;;43.88;24.00;;;5.20;99.90;;;3.74;100.00;101446.19;5029106;28;20476;-81
2021/11/11 09:28:05;;;;;;;49.22;25.40;;;5.40;99.90;;;3.81;100.00;101442.06;5028547;28;20152;-81
2021/11/11 09:30:37;;;;;;;41.30;22.35;;;5.40;99.90;;;3.88;100.00;101443.31;5044200;28;20107;-81
2021/11/11 09:33:05;;;;;;;47.85;24.38;;;5.50;99.90;;;3.95;100.00;101437.44;5027526;28;20575;-80
2021/11/11 09:35:34;;;;;;;46.17;23.70;;;5.80;99.90;;;4.01;100.00;101447.72;5028428;28;20425;-80
2021/11/11 09:38:02;;;;;;;43.65;23.15;;;5.70;99.90;;;4.12;100.00;101439.69;5032627;28;20128;-81
2021/11/11 09:40:31;;;;;;;49.33;24.33;;;5.80;99.90;;;4.19;100.00;101440.91;5034072;28;20048;-81
2021/11/11 09:42:59;;;;;;;46.30;24.05;;;5.90;99.90;;;4.28;100.00;101437.50;5020654;28;20523;-81
2021/11/11 09:45:30;;;;;;;54.90;24.13;;;5.90;99.90;;;4.37;100.00;101437.75;5032673;28;20053;-81
2021/11/11 09:47:59;;;;;;;41.33;22.42;;;6.00;99.90;;;4.41;100.00;101431.97;5013875;28;20056;-81
2021/11/11 09:50:28;;;;;;;46.80;24.00;;;6.10;99.90;;;4.50;100.00;101433.09;5030466;28;20037;-81
2021/11/11 09:52:59;;;;;;;46.92;23.90;;;6.20;99.90;;;4.59;100.00;101435.06;5031969;28;20044;-81
2021/11/11 10:00:59;;;;;;;49.60;25.25;;;6.40;99.90;;;4.79;100.00;101440.69;5032879;28;20049;-81
2021/11/11 10:03:27;;;;;;;44.67;23.48;;;6.50;99.90;;;4.87;100.00;101439.09;5045193;28;20068;-81
2021/11/11 10:05:55;;;;;;;46.00;23.85;;;6.60;99.90;;;4.92;100.00;101444.09;5032942;28;20041;-81
2021/11/11 10:08:38;;;;;;;53.60;25.95;;;6.60;99.90;;;5.00;100.00;101446.16;5032260;28;20077;-81
2021/11/11 10:11:10;;;;;;;51.00;26.23;;;6.70;99.90;;;5.03;100.00;101448.63;5017156;28;20139;-81
2021/11/11 10:13:40;;;;;;;48.80;24.38;;;6.80;99.90;;;5.06;100.00;101449.22;5025912;28;20121;-81
2021/11/11 10:16:14;;;;;;;49.08;25.35;;;6.80;99.90;;;5.09;100.00;101446.25;5032090;28;20045;-81
2021/11/11 10:18:49;;;;;;;47.58;24.90;;;6.80;99.90;;;5.15;100.00;101450.31;5028501;28;20132;-81
2021/11/11 10:21:26;;;;;;;46.33;24.25;;;6.90;99.90;;;5.22;100.00;101442.56;5011438;28;20038;-80
2021/11/11 10:23:54;;;;;;;51.22;25.52;;;6.90;99.90;;;5.25;100.00;101453.09;5016846;28;20064;-80
2021/11/11 10:26:28;;;;;;;44.08;23.35;;;7.00;99.90;;;5.27;100.00;101443.91;5032049;28;20766;-81
2021/11/11 10:28:56;;;;;;;48.70;25.42;;;7.00;99.90;;;5.30;100.00;101442.78;5021419;28;20057;-81
2021/11/11 10:31:24;;;;;;;50.40;25.50;;;7.10;99.90;;;5.34;100.00;101436.13;5016493;28;20046;-81
2021/11/11 10:34:09;;;;;;;52.17;26.35;;;7.10;99.90;;;5.38;100.00;101440.28;5027243;28;20077;-81
2021/11/11 10:36:43;;;;;;;52.72;25.55;;;7.20;99.90;;;5.42;100.00;101440.91;5028112;28;20045;-81
2021/11/11 10:39:15;;;;;;;52.20;25.63;;;7.20;99.90;;;5.46;100.00;101432.44;5030050;28;20052;-81
2021/11/11 10:41:44;;;;;;;51.90;26.50;;;7.30;99.90;;;5.53;100.00;101446.25;5028506;28;20038;-81
2021/11/11 10:44:24;;;;;;;53.17;26.30;;;7.30;99.90;;;5.59;100.00;101425.97;5024435;28;20095;-81